Time;durP1;ratioP1;P1;durP2;ratioP2;P2;SDS_P1;SDS_P2;PMS_P1;PMS_P2;Temp;Humidity;BMP_temperature;BMP_pressure;BME280_temperature;BME280_humidity;BME280_pressure;Samples;Min_cycle;Max_cycle;Signal;HPM_P1;HPM_P2
2020/12/20 00:01:45;;;;;;;34.20;17.05;;;;;;;2.87;87.04;100652.46;1799836;79;21188;-68
2020/12/20 00:04:14;;;;;;;;;;;;;;;2.91;87.14;100653.79;1802589;79;21107;-67
2020/12/20 00:06:44;;;;;;;49.93;17.30;;;;;;;2.96;87.38;100664.98;1799908;79;20208;-68
2020/12/20 00:09:17;;;;;;;41.37;19.02;;;;;;;3.00;87.32;100673.12;1799872;78;21124;-68
2020/12/20 00:11:47;;;;;;;40.48;18.98;;;;;;;2.98;87.04;100667.56;1799661;78;21366;-68
2020/12/20 00:14:30;;;;;;;33.75;17.45;;;;;;;2.91;86.94;100656.36;1799806;78;21220;-68
2020/12/20 00:17:07;;;;;;;36.20;19.20;;;;;;;2.89;87.49;100653.34;1800035;79;21044;-68
2020/12/20 00:19:35;;;;;;;38.02;19.35;;;;;;;2.95;87.68;100664.54;1799679;78;21058;-68
2020/12/20 00:22:13;;;;;;;35.68;18.90;;;;;;;2.99;87.45;100671.86;1799913;79;21068;-68
2020/12/20 00:24:42;;;;;;;40.20;20.25;;;;;;;2.95;87.43;100664.54;1799915;79;21140;-68
2020/12/20 00:27:12;;;;;;;35.68;19.42;;;;;;;2.93;87.49;100657.66;1799786;79;21144;-68
2020/12/20 00:29:42;;;;;;;33.50;16.77;;;;;;;2.92;87.74;100655.52;1800020;79;21096;-68
2020/12/20 00:32:11;;;;;;;31.45;16.93;;;;;;;2.92;87.74;100657.22;1799820;78;21489;-68
2020/12/20 00:34:39;;;;;;;38.92;18.92;;;;;;;2.96;87.89;100652.12;1799876;78;21061;-68
2020/12/20 00:37:06;;;;;;;39.25;20.20;;;;;;;2.98;87.59;100659.43;1799944;79;21462;-68
2020/12/20 00:39:34;;;;;;;32.90;17.67;;;;;;;2.96;87.78;100645.70;1799838;79;21095;-68
2020/12/20 00:42:05;;;;;;;35.95;18.50;;;;;;;2.98;87.75;100654.72;1799828;79;21139;-68
2020/12/20 00:44:33;;;;;;;32.88;16.93;;;;;;;3.01;87.81;100667.14;1799801;79;21113;-68
2020/12/20 00:47:03;;;;;;;31.52;16.23;;;;;;;3.07;87.72;100659.91;1799823;79;21048;-69
2020/12/20 00:49:32;;;;;;;33.13;17.70;;;;;;;3.14;87.70;100647.98;1799888;79;21351;-68
2020/12/20 00:52:05;;;;;;;30.02;16.25;;;;;;;3.20;87.60;100653.17;1799768;79;21136;-68
2020/12/20 00:54:33;;;;;;;31.90;16.75;;;;;;;3.25;87.35;100657.47;1800005;79;21085;-67
2020/12/20 00:57:01;;;;;;;31.97;17.20;;;;;;;3.27;87.17;100659.63;1799885;78;21567;-67
2020/12/20 00:59:29;;;;;;;29.45;15.93;;;;;;;3.29;87.16;100650.22;1799793;79;21057;-67
2020/12/20 01:01:58;;;;;;;33.73;16.77;;;;;;;3.33;87.03;100662.26;1799935;79;22263;-67
2020/12/20 01:04:26;;;;;;;30.00;15.88;;;;;;;3.35;86.56;100663.13;1799890;78;21490;-67
2020/12/20 01:06:56;;;;;;;37.58;16.52;;;;;;;3.31;86.65;100659.23;1799844;79;21101;-67
2020/12/20 01:09:25;;;;;;;32.75;16.17;;;;;;;3.33;86.85;100660.11;1799950;79;21056;-68
2020/12/20 01:11:56;;;;;;;37.80;19.32;;;;;;;3.35;86.62;100663.13;1799901;79;21116;-67
2020/12/20 01:14:26;;;;;;;38.50;19.55;;;;;;;3.34;86.51;100661.83;1799952;78;21494;-67
2020/12/20 01:17:03;;;;;;;37.65;18.85;;;;;;;3.28;86.34;100660.07;1799747;79;21497;-67
2020/12/20 01:19:32;;;;;;;35.33;19.12;;;;;;;3.22;86.54;100661.72;1799023;79;21140;-67
2020/12/20 01:22:00;;;;;;;41.30;20.65;;;;;;;3.23;86.82;100660.45;1799770;79;21167;-67
2020/12/20 01:24:29;;;;;;;46.65;23.52;;;;;;;3.27;86.83;100658.77;1799880;79;21061;-67
2020/12/20 01:26:58;;;;;;;39.05;19.57;;;;;;;3.30;86.88;100654.52;1799848;79;21474;-67
2020/12/20 01:29:26;;;;;;;37.38;18.52;;;;;;;3.33;86.63;100660.97;1799774;79;21049;-67
2020/12/20 01:31:54;;;;;;;31.55;16.20;;;;;;;3.32;86.60;100658.39;1799822;79;21465;-67
2020/12/20 01:34:23;;;;;;;30.55;16.57;;;;;;;3.33;86.54;100663.97;1799731;79;21127;-67
2020/12/20 01:36:51;;;;;;;30.08;16.95;;;;;;;3.35;86.82;100660.56;1799838;79;21259;-67
2020/12/20 01:39:18;;;;;;;30.08;16.07;;;;;;;3.40;86.59;100655.00;1799803;78;21470;-67
2020/12/20 01:41:46;;;;;;;32.00;16.20;;;;;;;3.42;86.39;100657.58;1799860;78;21514;-67
2020/12/20 01:44:16;;;;;;;25.95;14.68;;;;;;;3.35;86.27;100661.84;1799513;79;21066;-67
2020/12/20 01:46:45;;;;;;;26.62;15.38;;;;;;;3.31;86.34;100655.38;1799846;79;21065;-67
2020/12/20 01:49:14;;;;;;;25.40;14.98;;;;;;;3.28;86.34;100658.78;1799598;79;21056;-67
2020/12/20 01:51:42;;;;;;;26.68;14.83;;;;;;;3.23;86.30;100660.87;1799798;79;21352;-67
2020/12/20 01:54:11;;;;;;;26.12;15.32;;;;;;;3.18;86.67;100658.72;1799765;78;21112;-67
2020/12/20 01:56:40;;;;;;;24.60;14.15;;;;;;;3.13;86.63;100654.83;1799538;79;21213;-67
2020/12/20 01:59:10;;;;;;;28.23;15.23;;;;;;;3.09;86.72;100659.08;1799216;79;21140;-67
2020/12/20 02:01:39;;;;;;;26.65;14.13;;;;;;;3.06;86.83;100657.77;1799755;78;21076;-67
2020/12/20 02:04:11;;;;;;;25.32;14.75;;;;;;;3.05;87.02;100653.89;1799431;79;21182;-67
2020/12/20 02:06:40;;;;;;;25.35;14.65;;;;;;;3.06;87.32;100664.19;1799423;79;21155;-67
2020/12/20 02:09:08;;;;;;;22.00;13.32;;;;;;;3.06;87.28;100656.48;1799954;79;21036;-67
2020/12/20 02:11:35;;;;;;;24.18;13.60;;;;;;;3.04;87.28;100661.16;1800059;78;21493;-67
2020/12/20 02:14:05;;;;;;;25.45;14.35;;;;;;;2.98;87.32;100655.58;1799468;78;21060;-67
2020/12/20 02:16:40;;;;;;;26.12;14.43;;;;;;;2.99;87.57;100657.72;1799366;79;21185;-68
2020/12/20 02:19:08;;;;;;;23.32;13.40;;;;;;;2.99;87.45;100662.86;1799843;79;21076;-67
2020/12/20 02:21:36;;;;;;;22.48;14.38;;;;;;;2.99;87.72;100661.58;1799804;78;21056;-67
2020/12/20 02:24:06;;;;;;;22.93;12.88;;;;;;;3.04;87.81;100663.73;1799685;79;21477;-68
2020/12/20 02:26:35;;;;;;;23.70;13.20;;;;;;;3.06;87.82;100664.19;1799561;78;21053;-68
2020/12/20 02:29:03;;;;;;;24.80;13.53;;;;;;;3.10;87.79;100659.52;1799951;78;21084;-68
2020/12/20 02:31:30;;;;;;;22.52;12.65;;;;;;;3.11;87.47;100663.81;1799873;79;21115;-67
2020/12/20 02:34:00;;;;;;;23.25;13.40;;;;;;;3.11;87.54;100662.52;1799966;78;21144;-68
2020/12/20 02:36:29;;;;;;;21.45;13.35;;;;;;;3.11;87.41;100665.52;1799937;78;21076;-68
2020/12/20 02:38:57;;;;;;;21.62;14.05;;;;;;;3.14;87.71;100663.40;1799952;79;21065;-67
2020/12/20 02:41:58;;;;;;;23.70;12.68;;;;;;;3.19;87.41;100662.59;1873630;75;22399;-68
2020/12/20 02:44:28;;;;;;;24.12;13.75;;;;;;;3.14;87.38;100663.40;1811373;78;21041;-68
2020/12/20 02:46:58;;;;;;;21.75;13.25;;;;;;;3.12;87.12;100664.67;1841647;77;21183;-67
2020/12/20 02:49:26;;;;;;;26.82;14.95;;;;;;;3.10;87.37;100676.64;1841532;78;20966;-68
2020/12/20 02:51:56;;;;;;;26.27;15.15;;;;;;;3.10;87.41;100671.08;1841191;78;20943;-68
2020/12/20 02:54:23;;;;;;;28.07;14.98;;;;;;;3.09;87.36;100673.22;1841659;77;21561;-67
2020/12/20 02:56:51;;;;;;;29.40;14.68;;;;;;;3.05;87.52;100679.17;1841591;78;21050;-67
2020/12/20 02:59:20;;;;;;;29.52;14.73;;;;;;;3.07;87.61;100675.33;1839444;77;21142;-67
2020/12/20 03:01:48;;;;;;;26.80;14.25;;;;;;;3.10;87.49;100678.80;1841461;78;20939;-67
2020/12/20 03:04:15;;;;;;;30.12;14.30;;;;;;;3.09;87.54;100679.64;1841494;78;21573;-68
2020/12/20 03:06:45;;;;;;;28.95;15.65;;;;;;;3.09;87.46;100672.35;1841519;77;21089;-67
2020/12/20 03:09:12;;;;;;;35.78;15.85;;;;;;;3.11;87.86;100675.38;1841553;78;21109;-67
2020/12/20 03:11:40;;;;;;;31.20;15.18;;;;;;;3.18;87.74;100673.72;1841619;77;22104;-67
2020/12/20 03:14:10;;;;;;;29.27;14.95;;;;;;;3.19;87.53;100678.02;1838539;77;21077;-67
2020/12/20 03:16:39;;;;;;;38.70;16.37;;;;;;;3.19;87.45;100678.44;1808064;79;21066;-68
2020/12/20 03:19:07;;;;;;;32.80;16.05;;;;;;;3.15;87.41;100680.13;1808506;79;21053;-67
2020/12/20 03:21:36;;;;;;;33.75;15.72;;;;;;;3.13;87.52;100675.39;1808577;79;21541;-67
2020/12/20 03:24:32;;;;;;;37.40;16.17;;;;;;;3.18;87.58;100676.72;1890058;76;22705;-68
2020/12/20 03:27:08;;;;;;;30.77;15.58;;;;;;;3.11;87.63;100679.66;1803361;77;21548;-66
2020/12/20 03:29:38;;;;;;;36.60;17.12;;;;;;;3.12;87.65;100685.23;1855313;77;21521;-67
2020/12/20 03:32:17;;;;;;;28.17;15.00;;;;;;;3.09;87.48;100686.06;1856430;77;21560;-67
2020/12/20 03:34:49;;;;;;;45.00;17.27;;;;;;;3.04;87.57;100691.59;1859178;77;20993;-67
2020/12/20 03:37:33;;;;;;;35.83;15.65;;;;;;;2.99;87.64;100688.56;1859098;77;21477;-67
2020/12/20 03:40:05;;;;;;;32.80;15.05;;;;;;;2.97;87.94;100691.54;1859752;77;21458;-67
2020/12/20 03:42:34;;;;;;;28.75;15.20;;;;;;;2.98;88.25;100690.27;1861043;77;22340;-68
2020/12/20 03:45:01;;;;;;;32.28;15.32;;;;;;;3.04;88.11;100694.58;1860867;77;20922;-67
2020/12/20 03:47:30;;;;;;;37.28;15.68;;;;;;;3.06;88.44;100692.46;1860934;77;20929;-67
2020/12/20 03:49:59;;;;;;;34.67;16.45;;;;;;;3.11;88.22;100695.94;1860886;77;21556;-68
2020/12/20 03:52:27;;;;;;;34.98;17.17;;;;;;;3.14;87.98;100700.67;1860974;77;21049;-67
2020/12/20 03:55:00;;;;;;;42.40;16.50;;;;;;;3.10;88.02;100699.78;1850682;77;21377;-67
2020/12/20 03:57:28;;;;;;;30.68;16.48;;;;;;;3.05;87.89;100706.58;1827678;77;21116;-67
2020/12/20 03:59:57;;;;;;;31.87;16.25;;;;;;;3.02;87.91;100707.84;1860866;77;21124;-68
2020/12/20 04:02:25;;;;;;;37.53;17.02;;;;;;;3.03;88.18;100708.28;1860823;77;21144;-68
2020/12/20 04:04:53;;;;;;;29.95;15.38;;;;;;;3.03;88.36;100712.99;1860943;77;21655;-67
2020/12/20 04:07:21;;;;;;;37.25;16.82;;;;;;;3.06;88.20;100707.88;1860898;77;21403;-67
2020/12/20 04:09:48;;;;;;;29.60;15.60;;;;;;;3.05;88.08;100711.72;1860931;77;21103;-67
2020/12/20 04:12:18;;;;;;;32.63;15.18;;;;;;;3.05;88.37;100714.30;1860048;77;21124;-68
2020/12/20 04:14:47;;;;;;;34.55;16.65;;;;;;;3.08;88.26;100716.47;1849271;77;21112;-67
2020/12/20 04:17:15;;;;;;;29.48;15.95;;;;;;;3.10;88.29;100717.77;1827176;78;21132;-67
2020/12/20 04:19:42;;;;;;;34.48;16.82;;;;;;;3.15;88.42;100714.83;1827264;78;21340;-67
2020/12/20 04:22:20;;;;;;;29.57;15.68;;;;;;;3.18;88.13;100717.43;1890114;75;22788;-68
2020/12/20 04:25:07;;;;;;;27.37;14.40;;;;;;;3.12;88.04;100718.65;1861028;77;21047;-68
2020/12/20 04:27:36;;;;;;;26.97;15.05;;;;;;;3.09;87.98;100722.48;1858419;77;21139;-68
2020/12/20 04:30:04;;;;;;;29.12;15.88;;;;;;;3.06;87.97;100716.02;1860891;77;20982;-68
2020/12/20 04:32:34;;;;;;;31.20;15.75;;;;;;;3.04;88.07;100718.58;1827820;77;21116;-68
2020/12/20 04:35:01;;;;;;;31.90;16.20;;;;;;;3.06;88.18;100713.45;1860957;77;20906;-68
2020/12/20 04:37:30;;;;;;;28.77;15.40;;;;;;;3.07;88.12;100722.88;1827720;77;21025;-68
2020/12/20 04:40:00;;;;;;;27.73;15.23;;;;;;;3.09;88.22;100721.19;1860251;77;22370;-68
2020/12/20 04:42:29;;;;;;;30.88;15.75;;;;;;;3.17;88.29;100723.41;1859934;77;21076;-68
2020/12/20 04:44:59;;;;;;;29.95;15.98;;;;;;;3.22;88.03;100724.72;1828880;77;21469;-68
2020/12/20 04:47:28;;;;;;;28.20;15.10;;;;;;;3.22;87.74;100732.00;1860909;77;21069;-69
2020/12/20 04:49:56;;;;;;;30.68;15.98;;;;;;;3.21;87.70;100734.56;1828171;77;21088;-68
2020/12/20 04:52:25;;;;;;;27.80;15.08;;;;;;;3.20;87.77;100737.55;1860661;77;21296;-68
2020/12/20 04:54:53;;;;;;;28.17;14.85;;;;;;;3.24;87.70;100738.02;1860922;77;21596;-68
2020/12/20 04:57:25;;;;;;;26.82;14.50;;;;;;;3.28;87.47;100741.48;1856192;77;21541;-68
2020/12/20 04:59:53;;;;;;;27.02;14.65;;;;;;;3.28;87.44;100743.63;1828331;77;21139;-68
2020/12/20 05:02:21;;;;;;;23.87;13.32;;;;;;;3.31;87.41;100745.37;1860910;77;21052;-68
2020/12/20 05:04:49;;;;;;;25.10;13.98;;;;;;;3.26;86.95;100748.32;1860958;77;22067;-69
2020/12/20 05:07:17;;;;;;;22.90;13.03;;;;;;;3.14;86.99;100750.80;1860832;77;21142;-68
2020/12/20 05:09:50;;;;;;;38.33;20.80;;;;;;;3.06;87.24;100746.86;1860528;77;21489;-68
2020/12/20 05:12:31;;;;;;;24.27;13.65;;;;;;;3.06;87.54;100750.72;1860441;77;21489;-68
2020/12/20 05:15:02;;;;;;;23.83;12.18;;;;;;;3.09;87.43;100755.47;1869222;76;21440;-68
2020/12/20 05:17:30;;;;;;;21.62;13.43;;;;;;;3.07;87.29;100753.73;1848669;76;21768;-68
2020/12/20 05:20:16;;;;;;;20.88;12.03;;;;;;;3.07;87.33;100758.87;1873630;75;22724;-68
2020/12/20 05:22:45;;;;;;;19.82;11.60;;;;;;;2.95;87.32;100757.48;1810016;78;21548;-68
2020/12/20 05:25:17;;;;;;;20.25;11.40;;;;;;;2.87;87.38;100757.81;1841547;78;21407;-68
2020/12/20 05:27:46;;;;;;;18.25;10.60;;;;;;;2.84;87.56;100759.92;1841546;78;20982;-69
2020/12/20 05:30:17;;;;;;;18.25;10.85;;;;;;;2.81;87.71;100759.02;1810792;78;20999;-68
2020/12/20 05:32:49;;;;;;;20.57;11.83;;;;;;;2.79;88.13;100759.04;1836981;77;21061;-68
2020/12/20 05:35:17;;;;;;;19.42;11.50;;;;;;;2.82;88.05;100766.75;1841579;78;21074;-68
2020/12/20 05:37:45;;;;;;;21.50;11.83;;;;;;;2.82;88.08;100768.03;1841540;77;21189;-68
2020/12/20 05:40:27;;;;;;;19.37;11.35;;;;;;;2.85;88.02;100773.20;1888611;76;22803;-68
2020/12/20 05:43:04;;;;;;;20.92;12.15;;;;;;;2.80;88.07;100771.46;1775323;80;21171;-68
2020/12/20 05:45:36;;;;;;;21.52;12.55;;;;;;;2.79;88.20;100778.73;1773627;81;21205;-68
2020/12/20 05:48:17;;;;;;;23.45;13.45;;;;;;;2.79;88.32;100782.16;1774428;80;21667;-68
2020/12/20 05:50:55;;;;;;;23.95;12.88;;;;;;;2.80;88.31;100785.59;1773869;81;21524;-68
2020/12/20 05:53:31;;;;;;;21.57;12.58;;;;;;;2.80;88.19;100785.59;1775316;80;21060;-66
2020/12/20 05:56:00;;;;;;;26.37;13.38;;;;;;;2.80;88.34;100794.13;1774109;81;21547;-66
2020/12/20 05:58:30;;;;;;;24.85;13.03;;;;;;;2.81;88.25;100791.14;1775328;80;22296;-67
2020/12/20 06:00:59;;;;;;;23.62;13.28;;;;;;;2.81;88.39;100794.57;1773329;81;21115;-67
2020/12/20 06:03:27;;;;;;;19.42;12.47;;;;;;;2.79;88.24;100794.14;1775250;80;21155;-67
2020/12/20 06:05:56;;;;;;;21.77;12.23;;;;;;;2.78;88.19;100797.55;1773885;81;21150;-67
2020/12/20 06:08:23;;;;;;;20.82;11.93;;;;;;;2.76;88.27;100801.39;1747564;80;21056;-67
2020/12/20 06:10:53;;;;;;;22.35;12.75;;;;;;;2.73;88.21;100800.93;1773887;81;21206;-67
2020/12/20 06:13:23;;;;;;;20.25;12.13;;;;;;;2.75;88.56;100802.23;1775234;80;21071;-67
2020/12/20 06:15:56;;;;;;;21.60;11.75;;;;;;;2.75;88.39;100805.67;1750106;81;21060;-67
2020/12/20 06:18:29;;;;;;;25.12;13.40;;;;;;;2.72;88.44;100800.91;1775411;80;21111;-66
2020/12/20 06:20:59;;;;;;;19.55;11.80;;;;;;;2.72;88.59;100804.77;1743359;82;21559;-66
2020/12/20 06:23:32;;;;;;;20.92;12.40;;;;;;;2.78;88.83;100808.70;1743022;82;21210;-66
2020/12/20 06:26:02;;;;;;;20.85;12.73;;;;;;;2.82;88.54;100805.71;1743196;82;21525;-66
2020/12/20 06:28:32;;;;;;;26.73;14.18;;;;;;;2.80;88.56;100810.83;1775303;80;21578;-66
2020/12/20 06:31:01;;;;;;;24.50;13.93;;;;;;;2.82;88.77;100810.42;1742962;82;21076;-68
2020/12/20 06:33:40;;;;;;;25.62;14.13;;;;;;;2.87;88.83;100813.05;1743238;82;21115;-67
2020/12/20 06:36:14;;;;;;;24.10;13.18;;;;;;;2.95;88.83;100816.16;1777774;80;21395;-66
2020/12/20 06:38:54;;;;;;;19.05;11.45;;;;;;;3.03;88.49;100820.08;1775006;80;21185;-67
2020/12/20 06:41:35;;;;;;;20.90;11.78;;;;;;;3.07;88.27;100818.84;1743102;82;21492;-67
2020/12/20 06:44:13;;;;;;;20.10;11.55;;;;;;;3.04;88.20;100818.81;1775265;80;21068;-67
2020/12/20 06:46:41;;;;;;;21.50;12.63;;;;;;;3.06;88.08;100817.55;1742963;82;21064;-68
2020/12/20 06:49:32;;;;;;;21.30;12.13;;;;;;;3.09;88.13;100817.58;1743219;82;22271;-68
2020/12/20 06:52:23;;;;;;;21.55;11.40;;;;;;;3.12;87.87;100821.47;1774644;80;21064;-68
2020/12/20 06:55:08;;;;;;;18.55;11.45;;;;;;;3.15;87.56;100821.52;1742727;82;21085;-67
2020/12/20 06:57:39;;;;;;;25.17;13.70;;;;;;;3.14;87.70;100824.06;1774666;80;21572;-67
2020/12/20 07:00:06;;;;;;;18.70;12.15;;;;;;;3.16;87.41;100819.38;1738802;82;21127;-67
2020/12/20 07:02:48;;;;;;;22.00;13.30;;;;;;;3.17;87.71;100815.11;1749099;80;21446;-67
2020/12/20 07:05:44;;;;;;;23.95;12.35;;;;;;;3.24;87.46;100816.87;1774743;80;21166;-67
2020/12/20 07:08:23;;;;;;;21.48;12.60;;;;;;;3.23;87.28;100814.72;1742643;82;21175;-67
2020/12/20 07:11:02;;;;;;;21.97;12.80;;;;;;;3.21;87.14;100817.69;1742410;82;21063;-67
2020/12/20 07:13:41;;;;;;;23.45;13.05;;;;;;;3.21;87.37;100821.97;1774648;79;21087;-67
2020/12/20 07:16:14;;;;;;;22.05;12.03;;;;;;;3.22;87.20;100823.28;1742594;81;21415;-67
2020/12/20 07:19:02;;;;;;;19.07;11.95;;;;;;;3.23;87.23;100821.56;1774595;80;21072;-67
2020/12/20 07:21:41;;;;;;;20.88;12.05;;;;;;;3.25;87.23;100829.73;1742244;82;21064;-66
2020/12/20 07:24:19;;;;;;;19.73;11.80;;;;;;;3.26;87.01;100828.89;1776990;80;21141;-66
2020/12/20 07:26:53;;;;;;;21.93;13.53;;;;;;;3.29;87.28;100829.35;1774621;80;21120;-66
2020/12/20 07:29:20;;;;;;;23.98;13.10;;;;;;;3.31;87.08;100837.52;1742659;82;21154;-67
2020/12/20 07:31:56;;;;;;;21.55;12.82;;;;;;;3.31;87.09;100837.52;1774587;80;21012;-67
2020/12/20 07:34:26;;;;;;;21.93;11.40;;;;;;;3.33;87.10;100835.83;1742382;82;21103;-67
2020/12/20 07:36:54;;;;;;;21.17;10.40;;;;;;;3.39;87.13;100841.05;1742615;82;21080;-68
2020/12/20 07:39:24;;;;;;;17.50;11.22;;;;;;;3.45;86.99;100837.64;1772236;80;21520;-68
2020/12/20 07:41:57;;;;;;;18.40;11.10;;;;;;;3.49;86.68;100842.39;1735534;82;21416;-68
2020/12/20 07:44:27;;;;;;;17.52;11.22;;;;;;;3.53;86.88;100845.44;1766507;81;21167;-68
2020/12/20 07:46:54;;;;;;;16.45;10.90;;;;;;;3.62;86.77;100844.22;1735589;82;21505;-68
2020/12/20 07:49:21;;;;;;;17.77;10.82;;;;;;;3.68;86.56;100852.00;1767515;81;21076;-68
2020/12/20 07:51:49;;;;;;;16.52;10.32;;;;;;;3.75;86.21;100856.36;1735595;82;21655;-68
2020/12/20 07:54:16;;;;;;;15.98;10.05;;;;;;;3.70;85.79;100853.73;1767529;80;21814;-68
2020/12/20 07:56:45;;;;;;;16.30;10.90;;;;;;;3.65;85.75;100858.40;1735422;82;21092;-68
2020/12/20 07:59:16;;;;;;;19.98;11.25;;;;;;;3.60;85.92;100861.34;1743580;81;21076;-68
2020/12/20 08:01:47;;;;;;;16.13;9.97;;;;;;;3.60;85.92;100859.64;1735734;82;21159;-66
2020/12/20 08:04:20;;;;;;;18.92;10.93;;;;;;;3.57;85.86;100864.78;1767495;81;21509;-68
2020/12/20 08:06:51;;;;;;;18.17;11.35;;;;;;;3.57;85.77;100867.78;1735516;82;22293;-68
2020/12/20 08:09:23;;;;;;;18.67;11.43;;;;;;;3.54;85.76;100865.17;1767441;80;21111;-67
2020/12/20 08:11:52;;;;;;;18.65;11.12;;;;;;;3.55;85.83;100866.90;1735590;82;21080;-67
2020/12/20 08:14:21;;;;;;;17.32;10.68;;;;;;;3.51;85.81;100865.14;1767493;81;21124;-68
2020/12/20 08:16:50;;;;;;;11.65;8.43;;;;;;;3.51;86.05;100867.29;1735576;82;21180;-68
2020/12/20 08:19:28;;;;;;;15.43;10.40;;;;;;;3.53;85.95;100872.02;1767481;81;21365;-67
2020/12/20 08:22:06;;;;;;;15.28;9.43;;;;;;;3.58;86.03;100869.50;1735461;82;21156;-67
2020/12/20 08:24:36;;;;;;;14.53;8.98;;;;;;;3.59;85.72;100874.66;1767533;81;21076;-68
2020/12/20 08:27:27;;;;;;;17.67;10.63;;;;;;;3.61;85.88;100878.51;1767563;81;21064;-68
2020/12/20 08:29:57;;;;;;;12.35;9.28;;;;;;;3.63;85.86;100876.81;1767514;81;21036;-66
2020/12/20 08:32:33;;;;;;;11.45;8.35;;;;;;;3.60;85.61;100878.06;1767604;81;22274;-67
2020/12/20 08:35:18;;;;;;;11.20;7.20;;;;;;;3.55;85.68;100874.62;1767158;81;21511;-67
2020/12/20 08:37:58;;;;;;;9.15;7.20;;;;;;;3.56;85.71;100873.77;1767492;81;21084;-68
2020/12/20 08:40:32;;;;;;;9.35;6.78;;;;;;;3.58;85.71;100878.09;1749788;80;21148;-68
2020/12/20 08:43:00;;;;;;;11.93;8.25;;;;;;;3.58;85.43;100875.94;1778060;80;21044;-68
2020/12/20 08:45:30;;;;;;;9.95;6.92;;;;;;;3.61;85.61;100881.94;1777919;80;21477;-67
2020/12/20 08:48:02;;;;;;;8.48;5.65;;;;;;;3.71;85.48;100886.34;1777808;80;21119;-68
2020/12/20 08:50:31;;;;;;;8.33;5.97;;;;;;;3.80;84.92;100886.83;1756174;81;21091;-67
2020/12/20 08:53:04;;;;;;;8.93;6.12;;;;;;;3.85;84.80;100882.59;1756161;81;21578;-68
2020/12/20 08:55:32;;;;;;;;;;;;;;;3.90;84.67;100880.92;1758359;81;21499;-67
2020/12/20 08:58:05;;;;;;;10.48;7.35;;;;;;;3.93;84.55;100882.23;1756242;81;22105;-67
2020/12/20 09:00:34;;;;;;;11.05;7.12;;;;;;;3.92;84.44;100878.36;1756126;81;21513;-67
2020/12/20 09:03:03;;;;;;;9.45;6.55;;;;;;;3.91;84.38;100876.22;1756141;81;21075;-68
2020/12/20 09:05:33;;;;;;;9.18;6.30;;;;;;;3.92;84.09;100875.79;1756114;81;21071;-68
2020/12/20 09:08:02;;;;;;;8.93;6.58;;;;;;;3.89;84.08;100868.91;1756150;81;21067;-68
2020/12/20 09:10:34;;;;;;;9.25;6.50;;;;;;;3.93;83.91;100870.66;1756138;81;21131;-68
2020/12/20 09:13:06;;;;;;;10.00;6.67;;;;;;;3.94;83.96;100867.23;1756063;81;21088;-68
2020/12/20 09:15:35;;;;;;;10.10;6.83;;;;;;;3.96;83.68;100871.11;1756324;81;21499;-68
2020/12/20 09:20:57;;;;;;;8.85;6.33;;;;;;;4.05;83.59;100869.88;1873676;75;22786;-67
2020/12/20 09:23:25;;;;;;;9.60;7.05;;;;;;;3.97;83.49;100866.40;1841648;78;21470;-68
2020/12/20 09:26:01;;;;;;;12.07;8.18;;;;;;;3.94;83.57;100872.38;1841612;78;21184;-67
2020/12/20 09:28:32;;;;;;;11.65;6.95;;;;;;;3.91;83.57;100871.06;1841508;77;20935;-67
2020/12/20 09:31:00;;;;;;;13.18;7.35;;;;;;;3.91;83.67;100865.92;1841580;78;21125;-67
2020/12/20 09:33:32;;;;;;;11.57;6.90;;;;;;;3.96;83.79;100875.83;1841567;78;21462;-67
2020/12/20 09:36:14;;;;;;;11.12;7.40;;;;;;;3.98;83.47;100873.27;1841725;77;21108;-68
2020/12/20 09:38:48;;;;;;;8.90;6.85;;;;;;;3.95;83.43;100871.95;1841531;78;21371;-67
2020/12/20 09:41:19;;;;;;;11.12;7.67;;;;;;;3.92;83.29;100865.49;1841540;78;20915;-67
2020/12/20 09:43:47;;;;;;;11.12;7.42;;;;;;;3.90;83.84;100867.19;1841568;78;21058;-67
2020/12/20 09:46:22;;;;;;;9.65;7.62;;;;;;;3.97;83.70;100876.27;1841472;77;21062;-68
2020/12/20 09:48:50;;;;;;;10.30;7.97;;;;;;;3.97;83.40;100873.70;1841642;77;21148;-69
2020/12/20 09:51:18;;;;;;;10.32;8.03;;;;;;;3.91;83.44;100872.78;1841529;77;21352;-68
2020/12/20 09:53:47;;;;;;;11.53;8.43;;;;;;;3.93;83.65;100865.94;1841565;77;21474;-68
2020/12/20 09:56:16;;;;;;;10.48;7.87;;;;;;;4.00;83.47;100864.69;1841613;77;21037;-68
2020/12/20 09:58:44;;;;;;;12.10;7.12;;;;;;;4.07;83.34;100865.17;1841412;78;21206;-68
2020/12/20 10:01:17;;;;;;;7.30;5.60;;;;;;;4.12;83.13;100860.92;1841538;77;21045;-68
2020/12/20 10:03:44;;;;;;;9.10;6.33;;;;;;;4.17;82.69;100869.98;1841870;78;21357;-68
2020/12/20 10:06:13;;;;;;;9.18;6.83;;;;;;;4.14;82.36;100859.23;1841408;78;21367;-68
2020/12/20 10:08:41;;;;;;;9.10;6.30;;;;;;;4.11;82.42;100857.91;1811965;78;21541;-68
2020/12/20 10:11:09;;;;;;;7.62;6.28;;;;;;;4.09;82.40;100849.31;1841424;77;21061;-68
2020/12/20 10:13:37;;;;;;;8.93;6.30;;;;;;;4.05;82.27;100856.58;1841515;78;21546;-68
2020/12/20 10:16:04;;;;;;;10.32;6.72;;;;;;;4.03;82.40;100856.12;1813719;78;21786;-68
2020/12/20 10:18:34;;;;;;;8.60;6.03;;;;;;;4.07;82.52;100846.29;1807975;79;21129;-67
2020/12/20 10:21:02;;;;;;;9.90;7.00;;;;;;;4.13;82.41;100851.49;1808345;78;21199;-67
2020/12/20 10:23:30;;;;;;;10.10;7.45;;;;;;;4.21;82.43;100836.06;1808544;79;21581;-67
2020/12/20 10:25:58;;;;;;;9.80;6.65;;;;;;;4.30;82.35;100834.42;1808429;79;21037;-67
2020/12/20 10:28:25;;;;;;;9.50;7.25;;;;;;;4.42;82.01;100833.62;1808566;79;21191;-67
2020/12/20 10:30:53;;;;;;;8.98;6.60;;;;;;;4.48;81.50;100834.52;1779447;79;21097;-67
2020/12/20 10:33:21;;;;;;;8.48;6.33;;;;;;;4.53;81.35;100833.27;1807840;79;21094;-66
2020/12/20 10:35:48;;;;;;;9.03;6.65;;;;;;;4.57;81.00;100831.56;1807895;78;21046;-67
2020/12/20 10:38:16;;;;;;;9.60;6.47;;;;;;;4.63;80.86;100832.86;1807849;79;21049;-67
2020/12/20 10:40:43;;;;;;;9.53;6.75;;;;;;;4.67;80.65;100835.47;1778965;79;21802;-67
2020/12/20 10:43:10;;;;;;;8.83;6.80;;;;;;;4.66;80.29;100837.61;1807772;79;21148;-68
2020/12/20 10:45:38;;;;;;;9.25;6.75;;;;;;;4.62;80.18;100837.58;1807840;79;21054;-68
2020/12/20 10:48:05;;;;;;;10.60;6.80;;;;;;;4.62;80.44;100836.29;1807859;79;21053;-68
2020/12/20 10:50:34;;;;;;;8.03;6.45;;;;;;;4.67;80.39;100833.31;1807856;78;21101;-69
2020/12/20 10:53:02;;;;;;;10.13;7.40;;;;;;;4.73;80.17;100836.78;1807880;78;22028;-68
2020/12/20 10:55:31;;;;;;;10.60;7.53;;;;;;;4.73;80.14;100843.23;1806806;79;21136;-68
2020/12/20 10:57:59;;;;;;;9.10;6.92;;;;;;;4.74;80.13;100838.52;1807865;79;21041;-68
2020/12/20 11:00:26;;;;;;;10.35;7.70;;;;;;;4.79;80.07;100834.67;1807815;78;21082;-68
2020/12/20 11:02:54;;;;;;;9.93;7.65;;;;;;;4.84;79.76;100839.39;1807858;79;21097;-68
2020/12/20 11:05:25;;;;;;;10.93;8.10;;;;;;;4.82;79.54;100834.23;1807483;79;21412;-68
2020/12/20 11:07:53;;;;;;;10.93;8.55;;;;;;;4.77;79.40;100838.95;1807818;79;21156;-68
2020/12/20 11:10:22;;;;;;;9.60;8.05;;;;;;;4.72;79.83;100835.06;1807827;79;21112;-68
2020/12/20 11:12:51;;;;;;;13.10;9.25;;;;;;;4.72;79.62;100836.78;1807857;79;21020;-68
2020/12/20 11:15:18;;;;;;;14.40;10.32;;;;;;;4.67;79.64;100828.16;1807819;78;21046;-68
2020/12/20 11:17:46;;;;;;;13.30;10.20;;;;;;;4.65;80.12;100832.44;1807930;78;21455;-68
2020/12/20 11:20:14;;;;;;;13.28;10.28;;;;;;;4.71;79.96;100828.19;1807580;78;21171;-68
2020/12/20 11:22:43;;;;;;;14.40;11.10;;;;;;;4.71;79.98;100832.05;1807835;78;21109;-68
2020/12/20 11:25:10;;;;;;;13.50;10.80;;;;;;;4.74;80.10;100828.20;1807836;79;21148;-68
2020/12/20 11:27:38;;;;;;;14.85;11.08;;;;;;;4.75;80.17;100829.06;1807964;79;21509;-68
2020/12/20 11:30:06;;;;;;;15.38;10.65;;;;;;;4.75;80.19;100834.22;1807862;79;21359;-68
2020/12/20 11:32:35;;;;;;;11.12;8.68;;;;;;;4.75;79.90;100835.51;1807717;78;21006;-70
2020/12/20 11:35:04;;;;;;;13.32;10.18;;;;;;;4.63;79.67;100836.30;1807835;79;21100;-70
2020/12/20 11:37:32;;;;;;;13.40;9.65;;;;;;;4.54;80.07;100833.70;1803724;79;21328;-71
2020/12/20 11:39:59;;;;;;;10.82;7.85;;;;;;;4.51;80.28;100829.81;1793727;78;21045;-73
2020/12/20 11:42:27;;;;;;;11.75;9.23;;;;;;;4.49;80.29;100834.09;1776007;80;22674;-72